createdAt,value
2023-05-10T00:01:00.907Z,258.9527
2023-05-10T00:02:04.160Z,262.2170
2023-05-10T00:03:07.643Z,259.2526
2023-05-10T00:04:10.870Z,262.7718
2023-05-10T00:05:14.129Z,252.1074
2023-05-10T00:06:15.490Z,249.2931
2023-05-10T00:07:18.723Z,252.5922
2023-05-10T00:08:22.157Z,268.5064
2023-05-10T00:09:25.376Z,249.6002
2023-05-10T00:10:28.616Z,255.5954
2023-05-10T00:11:32.021Z,259.6763
2023-05-10T00:12:35.228Z,261.0514
2023-05-10T00:13:38.892Z,256.0354
2023-05-10T00:14:42.086Z,263.3548
2023-05-10T00:15:45.311Z,256.0181
2023-05-10T00:16:48.690Z,257.2284
2023-05-10T00:17:51.938Z,245.7187
2023-05-10T00:18:55.383Z,244.6083
2023-05-10T00:19:58.609Z,251.0980
2023-05-10T00:21:02.058Z,240.1913
2023-05-10T00:22:05.292Z,239.2954
2023-05-10T00:23:08.538Z,252.8868
2023-05-10T00:24:11.972Z,243.2140
2023-05-10T00:25:15.203Z,233.1254
2023-05-10T00:26:18.622Z,235.5718
2023-05-10T00:27:21.851Z,240.2128
2023-05-10T00:28:25.078Z,221.5058
2023-05-10T00:29:28.316Z,233.6201
2023-05-10T00:30:31.543Z,231.8177
2023-05-10T00:31:35.117Z,226.3136
2023-05-10T00:32:38.354Z,260.1284
2023-05-10T00:33:41.593Z,252.2059
2023-05-10T00:34:44.829Z,241.1792
2023-05-10T00:35:48.035Z,245.2056
2023-05-10T00:36:51.309Z,249.3841
2023-05-10T00:37:54.494Z,259.9669
2023-05-10T00:38:55.774Z,239.4394
2023-05-10T00:39:59.052Z,235.8795
2023-05-10T00:41:02.646Z,222.9943
2023-05-10T00:42:05.901Z,234.2422
2023-05-10T00:43:09.117Z,237.8511
2023-05-10T00:44:09.630Z,236.0188
2023-05-10T00:45:12.956Z,226.7677
2023-05-10T00:46:16.604Z,221.6473
2023-05-10T00:47:19.897Z,220.1719
2023-05-10T00:48:23.141Z,225.0055
2023-05-10T00:49:26.397Z,227.9496
2023-05-10T00:50:29.617Z,230.8101
2023-05-10T00:51:32.882Z,229.9483
2023-05-10T00:52:36.124Z,220.5303
2023-05-10T00:53:39.378Z,209.8262
2023-05-10T00:54:42.611Z,216.2194
2023-05-10T00:55:45.835Z,225.4119
2023-05-10T00:56:49.071Z,204.5605
2023-05-10T00:57:52.294Z,204.8215
2023-05-10T00:58:55.743Z,212.3932
2023-05-10T00:59:58.947Z,236.2771
2023-05-10T01:01:02.207Z,231.1603
2023-05-10T01:02:05.791Z,214.9068
2023-05-10T01:03:09.151Z,267.6748
2023-05-10T01:04:12.480Z,235.7078
2023-05-10T01:05:15.749Z,206.8954
2023-05-10T01:06:19.236Z,200.3222
2023-05-10T01:07:22.488Z,200.5276
2023-05-10T01:08:25.709Z,241.5227
2023-05-10T01:09:28.949Z,214.3313
2023-05-10T01:10:32.168Z,199.0307
2023-05-10T01:11:35.687Z,196.6428
2023-05-10T01:12:39.115Z,206.2029
2023-05-10T01:13:42.338Z,231.2444
2023-05-10T01:14:45.562Z,228.9344
2023-05-10T01:15:48.791Z,208.6156
2023-05-10T01:16:51.984Z,211.1412
2023-05-10T01:17:55.220Z,181.6063
2023-05-10T01:18:58.687Z,207.1495
2023-05-10T01:20:01.923Z,217.9668
2023-05-10T01:21:05.110Z,220.7995
2023-05-10T01:22:08.610Z,234.0995
2023-05-10T01:23:11.844Z,237.0955
2023-05-10T01:24:15.034Z,207.0650
2023-05-10T01:25:18.262Z,235.0448
2023-05-10T01:26:21.462Z,214.8793
2023-05-10T01:27:24.688Z,224.4155
2023-05-10T01:28:27.926Z,218.6237
2023-05-10T01:29:31.408Z,222.2763
2023-05-10T01:30:34.616Z,229.5608
2023-05-10T01:31:37.874Z,233.3475
2023-05-10T01:32:41.069Z,226.1050
2023-05-10T01:33:44.320Z,216.4342
2023-05-10T01:34:47.768Z,212.3798
2023-05-10T01:35:51.336Z,229.5530
2023-05-10T01:36:54.549Z,220.4709
2023-05-10T01:37:57.811Z,225.4135
2023-05-10T01:39:01.301Z,235.8657
2023-05-10T01:40:04.566Z,232.8535
2023-05-10T01:41:07.770Z,234.5294
2023-05-10T01:42:10.980Z,226.7368
2023-05-10T01:43:14.226Z,213.3774
2023-05-10T01:44:17.674Z,221.0699
2023-05-10T01:45:20.876Z,222.2499
2023-05-10T01:46:24.139Z,226.4994
2023-05-10T01:47:27.367Z,220.7959
2023-05-10T01:48:30.588Z,224.2201
2023-05-10T01:49:34.053Z,241.1432
2023-05-10T01:50:37.256Z,234.6896
2023-05-10T01:51:41.470Z,241.8532
2023-05-10T01:52:41.005Z,257.1240
2023-05-10T01:53:44.231Z,244.5426
2023-05-10T01:54:47.481Z,213.0405
2023-05-10T01:55:50.697Z,226.6442
2023-05-10T01:56:54.140Z,225.4940
2023-05-10T01:57:57.359Z,232.1877
2023-05-10T01:59:00.548Z,261.0583
2023-05-10T02:00:03.772Z,243.1813
2023-05-10T02:01:07.093Z,234.1046
2023-05-10T02:02:10.308Z,225.8170
2023-05-10T02:03:13.564Z,246.3133
2023-05-10T02:04:16.752Z,227.6778
2023-05-10T02:05:30.849Z,192.1608
2023-05-10T02:06:34.039Z,239.6874
2023-05-10T02:07:37.518Z,242.1458
2023-05-10T02:08:40.744Z,227.9064
2023-05-10T02:09:44.314Z,222.4227
2023-05-10T02:10:47.726Z,224.8612
2023-05-10T02:11:50.932Z,224.7011
2023-05-10T02:12:54.201Z,238.4584
2023-05-10T02:13:57.404Z,212.3247
2023-05-10T02:15:00.640Z,229.4318
2023-05-10T02:16:03.840Z,216.1199
2023-05-10T02:17:07.055Z,215.4984
2023-05-10T02:18:10.368Z,239.6539
2023-05-10T02:19:13.566Z,242.1235
2023-05-10T02:20:17.222Z,227.6823
2023-05-10T02:21:20.597Z,200.9275
2023-05-10T02:22:23.825Z,210.1420
2023-05-10T02:23:27.053Z,165.1682
2023-05-10T02:24:30.248Z,220.4015
2023-05-10T02:25:33.703Z,235.0027
2023-05-10T02:26:36.887Z,226.4998
2023-05-10T02:27:40.392Z,202.0561
2023-05-10T02:28:43.610Z,204.3018
2023-05-10T02:29:46.812Z,237.5704
2023-05-10T02:30:50.009Z,219.2445
2023-05-10T02:31:53.228Z,236.1230
2023-05-10T02:32:56.457Z,225.7656
2023-05-10T02:33:59.644Z,230.3541
2023-05-10T02:35:00.803Z,274.4032
2023-05-10T02:36:04.024Z,261.9501
2023-05-10T02:37:07.241Z,239.8248
2023-05-10T02:38:10.796Z,231.3815
2023-05-10T02:39:13.990Z,199.2720
2023-05-10T02:40:17.462Z,213.0564
2023-05-10T02:41:20.783Z,237.2531
2023-05-10T02:42:24.005Z,222.4742
2023-05-10T02:43:27.233Z,205.4378
2023-05-10T02:44:30.446Z,222.4122
2023-05-10T02:45:33.666Z,233.5528
2023-05-10T02:46:36.894Z,246.3558
2023-05-10T02:47:40.123Z,237.5303
2023-05-10T02:48:43.392Z,267.9243
2023-05-10T02:49:46.595Z,254.1945
2023-05-10T02:50:50.146Z,242.0306
2023-05-10T02:51:53.341Z,226.5898
2023-05-10T02:52:56.823Z,233.9396
2023-05-10T02:54:00.046Z,233.7665
2023-05-10T02:55:03.521Z,233.0586
2023-05-10T02:56:06.714Z,238.1767
2023-05-10T02:57:09.948Z,244.8818
2023-05-10T02:58:13.211Z,261.4122
2023-05-10T02:59:16.466Z,227.4778
2023-05-10T03:00:19.915Z,222.1560
2023-05-10T03:01:23.177Z,240.3947
2023-05-10T03:02:26.403Z,262.3398
2023-05-10T03:03:29.942Z,229.9543
2023-05-10T03:04:33.196Z,224.3626
2023-05-10T03:05:36.382Z,192.1867
2023-05-10T03:06:39.662Z,214.9540
2023-05-10T03:07:42.877Z,234.2830
2023-05-10T03:08:46.058Z,212.5221
2023-05-10T03:09:49.268Z,228.2245
2023-05-10T03:10:52.718Z,233.8917
2023-05-10T03:11:55.923Z,234.3506
2023-05-10T03:12:59.411Z,230.7181
2023-05-10T03:14:02.611Z,240.0493
2023-05-10T03:15:05.851Z,258.3788
2023-05-10T03:16:09.112Z,257.0845
2023-05-10T03:17:12.315Z,259.1043
2023-05-10T03:18:15.507Z,232.2898
2023-05-10T03:19:18.711Z,224.8054
2023-05-10T03:20:20.035Z,248.1073
2023-05-10T03:21:23.255Z,224.5573
2023-05-10T03:22:26.490Z,262.6042
2023-05-10T03:23:29.695Z,232.6532
2023-05-10T03:24:32.922Z,232.1697
2023-05-10T03:25:36.204Z,226.8676
2023-05-10T03:26:39.440Z,223.4692
2023-05-10T03:27:42.650Z,231.9383
2023-05-10T03:28:45.873Z,198.4691
2023-05-10T03:29:49.102Z,206.0684
2023-05-10T03:30:52.451Z,243.5694
2023-05-10T03:31:55.819Z,232.0061
2023-05-10T03:32:59.302Z,220.4367
2023-05-10T03:34:02.582Z,242.7459
2023-05-10T03:35:05.792Z,234.9904
2023-05-10T03:36:09.244Z,199.3566
2023-05-10T03:37:12.485Z,218.4290
2023-05-10T03:38:16.021Z,233.4145
2023-05-10T03:39:19.232Z,227.3121
2023-05-10T03:40:22.673Z,217.8691
2023-05-10T03:41:25.873Z,208.5730
2023-05-10T03:42:29.061Z,228.5234
2023-05-10T03:43:32.498Z,240.4970
2023-05-10T03:44:35.732Z,274.3889
2023-05-10T03:45:39.038Z,252.4702
2023-05-10T03:46:42.501Z,228.7066
2023-05-10T03:47:45.749Z,234.5015
2023-05-10T03:48:48.967Z,220.1836
2023-05-10T03:49:52.199Z,255.4082
2023-05-10T03:50:55.595Z,235.8391
2023-05-10T03:51:58.767Z,237.2722
2023-05-10T03:53:02.223Z,222.1153
2023-05-10T03:54:05.427Z,264.1594
2023-05-10T03:55:08.659Z,248.2213
2023-05-10T03:56:11.897Z,234.0039
2023-05-10T03:57:15.090Z,237.6475
2023-05-10T03:58:18.569Z,232.8828
2023-05-10T03:59:21.785Z,239.5236
2023-05-10T04:00:25.024Z,212.5677
2023-05-10T04:01:28.221Z,209.4710
2023-05-10T04:02:31.545Z,244.0834
2023-05-10T04:03:34.885Z,246.3576
2023-05-10T04:04:38.066Z,217.0004
2023-05-10T04:05:41.302Z,236.8840
2023-05-10T04:06:44.512Z,224.8258
2023-05-10T04:07:47.730Z,232.3020
2023-05-10T04:08:50.959Z,252.5648
2023-05-10T04:09:54.150Z,262.3325
2023-05-10T04:10:57.375Z,261.7163
2023-05-10T04:12:00.602Z,233.5791
2023-05-10T04:13:03.827Z,251.6705
2023-05-10T04:14:07.090Z,258.3687
2023-05-10T04:15:10.296Z,240.6933
2023-05-10T04:16:13.489Z,246.1542
2023-05-10T04:17:16.895Z,270.6700
2023-05-10T04:18:20.381Z,223.6205
2023-05-10T04:19:23.605Z,214.8840
2023-05-10T04:20:26.823Z,218.5674
2023-05-10T04:21:30.268Z,195.6420
2023-05-10T04:22:33.418Z,196.4092
2023-05-10T04:23:36.862Z,204.2309
2023-05-10T04:24:40.082Z,217.1181
2023-05-10T04:25:43.286Z,219.3786
2023-05-10T04:26:46.487Z,227.8657
2023-05-10T04:27:49.735Z,225.3819
2023-05-10T04:28:52.944Z,251.8467
2023-05-10T04:29:56.177Z,227.6392
2023-05-10T04:30:59.437Z,222.1366
2023-05-10T04:32:02.605Z,214.9134
2023-05-10T04:33:05.850Z,210.7053
2023-05-10T04:34:09.324Z,240.2402
2023-05-10T04:35:12.548Z,222.3244
2023-05-10T04:36:15.787Z,241.3652
2023-05-10T04:37:19.033Z,204.8244
2023-05-10T04:38:22.524Z,214.2999
2023-05-10T04:39:25.753Z,217.1181
2023-05-10T04:40:28.992Z,217.3532
2023-05-10T04:41:32.454Z,224.3813
2023-05-10T04:42:35.659Z,217.0779
2023-05-10T04:43:38.882Z,262.4131
2023-05-10T04:44:42.048Z,238.2376
2023-05-10T04:45:45.273Z,190.9245
2023-05-10T04:46:48.798Z,202.1566
2023-05-10T04:47:51.995Z,206.5563
2023-05-10T04:48:55.202Z,221.0251
2023-05-10T04:49:58.422Z,205.9410
2023-05-10T04:51:01.686Z,220.9266
2023-05-10T04:52:04.901Z,204.8341
2023-05-10T04:53:08.156Z,203.2427
2023-05-10T04:54:11.365Z,226.6523
2023-05-10T04:55:14.608Z,231.2949
2023-05-10T04:56:17.836Z,246.6309
2023-05-10T04:57:21.046Z,206.2013
2023-05-10T04:58:24.252Z,190.8035
2023-05-10T04:59:27.716Z,191.7608
2023-05-10T05:00:30.894Z,221.1207
2023-05-10T05:01:34.178Z,200.5266
2023-05-10T05:02:37.483Z,248.6829
2023-05-10T05:03:40.842Z,231.8237
2023-05-10T05:04:44.058Z,230.2445
2023-05-10T05:05:47.285Z,264.6525
2023-05-10T05:06:53.662Z,276.7747
2023-05-10T05:07:53.374Z,269.9196
2023-05-10T05:08:56.639Z,285.3933
2023-05-10T05:09:59.874Z,235.4668
2023-05-10T05:11:03.066Z,262.5658
2023-05-10T05:12:06.294Z,252.2789
2023-05-10T05:13:09.500Z,261.9446
2023-05-10T05:14:12.670Z,283.5154
2023-05-10T05:15:15.907Z,249.3153
2023-05-10T05:16:19.170Z,258.9357
2023-05-10T05:17:22.377Z,272.1979
2023-05-10T05:18:25.599Z,275.8311
2023-05-10T05:19:29.071Z,240.8491
2023-05-10T05:20:32.292Z,237.2357
2023-05-10T05:21:35.490Z,234.3519
2023-05-10T05:22:38.701Z,211.3252
2023-05-10T05:23:41.936Z,190.8927
2023-05-10T05:24:45.137Z,214.3517
2023-05-10T05:25:48.364Z,199.2115
2023-05-10T05:26:51.616Z,222.4697
2023-05-10T05:27:54.837Z,190.5631
2023-05-10T05:28:58.077Z,200.8828
2023-05-10T05:30:01.298Z,198.5236
2023-05-10T05:31:04.473Z,217.3120
2023-05-10T05:32:07.756Z,217.3008
2023-05-10T05:33:11.029Z,217.7665
2023-05-10T05:34:14.211Z,221.5514
2023-05-10T05:35:17.572Z,220.4565
2023-05-10T05:36:20.925Z,217.6782
2023-05-10T05:37:24.154Z,232.7562
2023-05-10T05:38:27.361Z,230.3245
2023-05-10T05:39:30.802Z,234.0998
2023-05-10T05:40:34.003Z,260.9728
2023-05-10T05:41:37.198Z,229.8145
2023-05-10T05:42:40.445Z,217.5824
2023-05-10T05:43:43.690Z,209.0805
2023-05-10T05:44:47.062Z,222.4339
2023-05-10T05:45:50.403Z,198.5258
2023-05-10T05:46:53.614Z,220.5978
2023-05-10T05:47:56.858Z,196.2689
2023-05-10T05:49:00.034Z,190.3810
2023-05-10T05:50:03.316Z,222.4095
2023-05-10T05:51:07.406Z,209.2791
2023-05-10T05:52:07.271Z,200.2143
2023-05-10T05:53:10.492Z,210.3634
2023-05-10T05:54:13.671Z,222.5282
2023-05-10T05:55:17.213Z,230.6127
2023-05-10T05:56:20.492Z,242.9170
2023-05-10T05:57:23.713Z,225.8783
2023-05-10T05:58:26.948Z,225.6334
2023-05-10T05:59:30.202Z,239.2593
2023-05-10T06:00:33.397Z,220.3929
2023-05-10T06:01:36.614Z,233.4210
2023-05-10T06:02:40.010Z,244.9167
2023-05-10T06:03:43.405Z,235.6052
2023-05-10T06:04:46.616Z,237.8831
2023-05-10T06:05:49.872Z,235.0748
2023-05-10T06:06:53.093Z,238.5406
2023-05-10T06:07:56.328Z,233.1207
2023-05-10T06:08:59.576Z,234.1074
2023-05-10T06:10:02.820Z,252.7256
2023-05-10T06:11:05.994Z,246.5467
2023-05-10T06:12:09.547Z,244.0743
2023-05-10T06:13:12.803Z,250.4652
2023-05-10T06:14:16.296Z,219.9445
2023-05-10T06:15:19.504Z,245.1038
2023-05-10T06:16:22.776Z,227.8056
2023-05-10T06:17:26.007Z,248.6162
2023-05-10T06:18:29.235Z,242.5424
2023-05-10T06:19:32.586Z,228.6218
2023-05-10T06:20:35.800Z,242.6736
2023-05-10T06:21:39.036Z,265.1647
2023-05-10T06:22:42.240Z,235.9913
2023-05-10T06:23:45.467Z,241.7058
2023-05-10T06:24:48.709Z,260.6377
2023-05-10T06:25:51.952Z,233.3670
2023-05-10T06:26:55.189Z,244.6719
2023-05-10T06:27:58.547Z,251.4581
2023-05-10T06:29:01.778Z,259.0604
2023-05-10T06:30:12.339Z,245.6881
2023-05-10T06:31:06.812Z,266.3596
2023-05-10T06:32:10.045Z,247.0823
2023-05-10T06:33:13.358Z,306.2848
2023-05-10T06:34:16.603Z,311.0712
2023-05-10T06:35:20.209Z,262.9991
2023-05-10T06:36:23.803Z,250.0586
2023-05-10T06:37:27.075Z,265.2421
2023-05-10T06:38:30.340Z,282.2949
2023-05-10T06:39:33.805Z,293.1500
2023-05-10T06:40:37.053Z,257.0353
2023-05-10T06:41:40.340Z,256.6314
2023-05-10T06:42:43.588Z,265.8752
2023-05-10T06:43:46.815Z,261.5634
2023-05-10T06:44:50.099Z,251.3667
2023-05-10T06:45:53.412Z,247.1237
2023-05-10T06:46:56.672Z,274.8991
2023-05-10T06:47:59.949Z,293.5370
2023-05-10T06:49:03.202Z,262.5649
2023-05-10T06:50:06.458Z,277.2465
2023-05-10T06:51:09.704Z,259.6892
2023-05-10T06:52:13.183Z,264.1754
2023-05-10T06:53:16.709Z,267.3584
2023-05-10T06:54:19.933Z,247.2200
2023-05-10T06:55:23.152Z,245.0911
2023-05-10T06:56:26.380Z,263.1012
2023-05-10T06:57:31.744Z,267.5967
2023-05-10T06:58:31.784Z,267.3265
2023-05-10T06:59:35.167Z,259.9318
2023-05-10T07:00:38.540Z,240.1591
2023-05-10T07:01:41.807Z,236.0215
2023-05-10T07:02:45.037Z,233.6289
2023-05-10T07:03:48.296Z,254.6116
2023-05-10T07:04:51.606Z,229.3852
2023-05-10T07:05:54.808Z,250.7301
2023-05-10T07:06:58.291Z,288.7162
2023-05-10T07:08:01.527Z,253.1517
2023-05-10T07:09:04.802Z,249.6681
2023-05-10T07:10:08.261Z,240.1684
2023-05-10T07:11:11.506Z,271.0412
2023-05-10T07:12:15.868Z,245.4638
2023-05-10T07:13:15.752Z,236.4799
2023-05-10T07:14:19.317Z,266.0478
2023-05-10T07:15:22.572Z,243.3617
2023-05-10T07:16:25.826Z,247.4447
2023-05-10T07:17:29.144Z,257.3575
2023-05-10T07:18:32.493Z,251.9377
2023-05-10T07:19:35.710Z,251.9470
2023-05-10T07:20:38.942Z,254.0411
2023-05-10T07:21:42.186Z,263.6243
2023-05-10T07:22:45.687Z,274.6612
2023-05-10T07:23:48.918Z,240.0246
2023-05-10T07:24:52.176Z,264.3282
2023-05-10T07:25:55.406Z,266.2416
2023-05-10T07:26:58.921Z,274.0255
2023-05-10T07:28:02.147Z,263.8809
2023-05-10T07:29:05.406Z,256.3976
2023-05-10T07:30:08.881Z,266.2822
2023-05-10T07:31:12.151Z,262.4906
2023-05-10T07:32:15.455Z,238.4023
2023-05-10T07:33:18.852Z,277.3438
2023-05-10T07:34:22.114Z,230.6216
2023-05-10T07:35:25.646Z,246.8854
2023-05-10T07:36:28.904Z,248.2140
2023-05-10T07:37:32.162Z,261.7695
2023-05-10T07:38:35.413Z,248.9701
2023-05-10T07:39:38.733Z,244.3523
2023-05-10T07:40:41.968Z,256.4543
2023-05-10T07:41:45.291Z,267.5435
2023-05-10T07:42:48.488Z,263.3820
2023-05-10T07:43:51.747Z,270.9452
2023-05-10T07:44:54.995Z,251.8032
2023-05-10T07:45:58.238Z,251.7458
2023-05-10T07:47:01.478Z,251.7033
2023-05-10T07:48:04.748Z,266.2417
2023-05-10T07:49:08.016Z,225.4664
2023-05-10T07:50:11.260Z,254.6678
2023-05-10T07:51:14.557Z,230.5983
2023-05-10T07:52:17.833Z,263.2916
2023-05-10T07:53:21.139Z,285.2869
2023-05-10T07:54:24.398Z,256.1968
2023-05-10T07:55:27.643Z,265.9405
2023-05-10T07:56:30.866Z,264.0570
2023-05-10T07:57:34.376Z,250.4444
2023-05-10T07:58:37.644Z,215.0467
2023-05-10T07:59:40.882Z,231.8993
2023-05-10T08:00:44.122Z,249.8873
2023-05-10T08:01:47.380Z,254.8204
2023-05-10T08:02:50.967Z,337.9806
2023-05-10T08:03:54.372Z,282.2451
2023-05-10T08:04:57.784Z,274.9745
2023-05-10T08:06:01.028Z,254.6669
2023-05-10T08:07:04.309Z,276.1820
2023-05-10T08:08:07.543Z,269.2076
2023-05-10T08:09:10.791Z,239.8500
2023-05-10T08:10:14.299Z,301.8362
2023-05-10T08:11:17.532Z,259.3716
2023-05-10T08:12:21.066Z,259.6356
2023-05-10T08:13:24.289Z,270.8884
2023-05-10T08:14:27.557Z,252.6897
2023-05-10T08:15:30.819Z,285.5497
2023-05-10T08:16:34.141Z,276.2333
2023-05-10T08:17:37.399Z,296.2179
2023-05-10T08:18:40.726Z,297.0654
2023-05-10T08:19:43.938Z,261.4665
2023-05-10T08:20:47.162Z,268.5473
2023-05-10T08:21:50.471Z,238.5769
2023-05-10T08:22:53.720Z,154.1273
2023-05-10T08:23:56.972Z,127.7003
2023-05-10T08:25:00.195Z,253.7078
2023-05-10T08:26:03.458Z,269.7991
2023-05-10T08:27:06.735Z,241.4644
2023-05-10T08:28:11.335Z,253.9869
2023-05-10T08:29:11.472Z,281.3160
2023-05-10T08:30:14.731Z,273.8054
2023-05-10T08:31:18.008Z,281.3189
2023-05-10T08:32:21.222Z,242.0377
2023-05-10T08:33:24.471Z,272.5851
2023-05-10T08:34:27.878Z,247.6425
2023-05-10T08:35:31.126Z,261.5213
2023-05-10T08:36:34.395Z,272.1726
2023-05-10T08:37:37.635Z,248.9801
2023-05-10T08:38:40.845Z,266.7904
2023-05-10T08:39:44.372Z,314.8596
2023-05-10T08:40:47.591Z,276.4204
2023-05-10T08:41:50.829Z,298.7525
2023-05-10T08:42:54.115Z,292.4555
2023-05-10T08:43:57.394Z,266.8686
2023-05-10T08:45:00.955Z,127.0152
2023-05-10T08:46:04.284Z,331.1270
2023-05-10T08:47:07.730Z,318.7426
2023-05-10T08:48:11.157Z,289.9572
2023-05-10T08:49:14.371Z,293.9001
2023-05-10T08:50:17.639Z,255.4520
2023-05-10T08:51:20.887Z,263.3596
2023-05-10T08:52:24.154Z,310.4974
2023-05-10T08:53:27.391Z,252.9159
2023-05-10T08:54:30.657Z,266.4650
2023-05-10T08:55:34.139Z,276.2898
2023-05-10T08:56:37.366Z,265.2957
2023-05-10T08:57:40.623Z,259.1830
2023-05-10T08:58:43.899Z,251.6954
2023-05-10T08:59:47.103Z,241.6029
2023-05-10T09:00:50.358Z,285.6790
2023-05-10T09:01:53.569Z,297.1436
2023-05-10T09:02:56.846Z,265.7090
2023-05-10T09:04:00.200Z,264.2023
2023-05-10T09:05:03.771Z,272.0569
2023-05-10T09:06:07.065Z,261.3742
2023-05-10T09:07:10.293Z,256.6436
2023-05-10T09:08:13.568Z,240.1510
2023-05-10T09:09:16.851Z,266.5608
2023-05-10T09:10:20.095Z,259.5208
2023-05-10T09:11:23.348Z,264.1053
2023-05-10T09:12:26.568Z,259.0720
2023-05-10T09:13:29.832Z,280.2331
2023-05-10T09:14:33.073Z,249.8256
2023-05-10T09:15:36.570Z,283.2703
2023-05-10T09:16:39.973Z,316.0892
2023-05-10T09:17:43.343Z,273.2244
2023-05-10T09:18:46.655Z,276.9329
2023-05-10T09:19:49.900Z,276.0860
2023-05-10T09:20:53.180Z,281.6079
2023-05-10T09:21:56.393Z,274.2179
2023-05-10T09:22:59.874Z,268.8471
2023-05-10T09:24:03.148Z,290.3306
2023-05-10T09:25:06.391Z,300.6921
2023-05-10T09:26:09.667Z,272.1543
2023-05-10T09:27:12.922Z,262.6870
2023-05-10T09:28:16.492Z,276.6162
2023-05-10T09:29:19.745Z,280.8459
2023-05-10T09:30:23.019Z,253.9491
2023-05-10T09:31:26.332Z,306.7986
2023-05-10T09:32:29.562Z,278.9869
2023-05-10T09:33:32.801Z,289.7017
2023-05-10T09:34:36.048Z,289.9442
2023-05-10T09:35:39.528Z,327.2247
2023-05-10T09:36:42.796Z,319.7205
2023-05-10T09:37:46.632Z,275.3199
2023-05-10T09:38:46.202Z,330.6971
2023-05-10T09:39:49.455Z,347.4988
2023-05-10T09:40:52.728Z,326.1218
2023-05-10T09:41:55.960Z,288.1724
2023-05-10T09:42:59.429Z,277.6538
2023-05-10T09:44:02.682Z,298.2091
2023-05-10T09:45:05.952Z,295.1719
2023-05-10T09:46:09.359Z,290.6786
2023-05-10T09:47:12.612Z,300.1794
2023-05-10T09:48:15.849Z,261.3383
2023-05-10T09:49:19.105Z,299.6789
2023-05-10T09:50:22.387Z,268.6889
2023-05-10T09:51:25.610Z,264.3624
2023-05-10T09:52:28.885Z,295.6930
2023-05-10T09:53:32.275Z,308.7281
2023-05-10T09:54:35.491Z,275.6172
2023-05-10T09:55:38.742Z,308.5526
2023-05-10T09:56:42.015Z,285.9637
2023-05-10T09:57:45.245Z,303.0993
2023-05-10T09:58:48.509Z,295.3337
2023-05-10T09:59:51.732Z,299.7551
2023-05-10T10:00:55.035Z,322.5032
2023-05-10T10:01:58.360Z,259.8369
2023-05-10T10:03:01.585Z,267.8130
2023-05-10T10:04:04.836Z,294.3290
2023-05-10T10:05:08.240Z,246.3294
2023-05-10T10:06:22.700Z,283.3089
2023-05-10T10:07:13.302Z,318.9781
2023-05-10T10:08:16.814Z,321.5472
2023-05-10T10:09:20.058Z,316.8807
2023-05-10T10:10:23.301Z,298.3512
2023-05-10T10:11:26.564Z,4.9762
2023-05-10T10:12:29.805Z,188.7416
2023-05-10T10:13:33.286Z,296.1842
2023-05-10T10:14:36.551Z,322.5499
2023-05-10T10:15:39.778Z,283.2678
2023-05-10T10:16:55.514Z,286.1082
2023-05-10T10:17:44.878Z,338.5479
2023-05-10T10:18:48.167Z,283.6894
2023-05-10T10:19:51.442Z,310.2306
2023-05-10T10:20:52.793Z,310.7008
2023-05-10T10:21:56.063Z,322.7177
2023-05-10T10:22:59.273Z,300.9675
2023-05-10T10:24:02.571Z,347.5501
2023-05-10T10:25:05.839Z,291.2404
2023-05-10T10:26:09.384Z,286.9554
2023-05-10T10:27:12.601Z,306.0601
2023-05-10T10:28:15.869Z,291.0485
2023-05-10T10:29:19.121Z,355.6935
2023-05-10T10:30:22.714Z,309.2357
2023-05-10T10:31:25.988Z,300.3189
2023-05-10T10:32:29.277Z,308.4795
2023-05-10T10:33:32.629Z,313.3492
2023-05-10T10:34:35.888Z,301.5870
2023-05-10T10:35:39.142Z,314.7357
2023-05-10T10:36:42.410Z,293.1470
2023-05-10T10:37:45.642Z,315.3990
2023-05-10T10:38:48.876Z,294.2233
2023-05-10T10:39:52.125Z,287.2147
2023-05-10T10:40:55.383Z,256.8802
2023-05-10T10:41:58.620Z,274.4489
2023-05-10T10:43:02.113Z,306.0467
2023-05-10T10:44:05.348Z,318.8015
2023-05-10T10:45:08.600Z,302.9576
2023-05-10T10:46:11.899Z,321.4983
2023-05-10T10:47:15.168Z,352.8854
2023-05-10T10:48:18.454Z,301.9993
2023-05-10T10:49:21.700Z,293.0834
2023-05-10T10:50:24.952Z,241.4381
2023-05-10T10:51:28.206Z,253.3910
2023-05-10T10:52:31.477Z,267.3413
2023-05-10T10:53:35.067Z,338.0193
2023-05-10T10:54:38.328Z,337.2204
2023-05-10T10:55:41.573Z,327.2639
2023-05-10T10:56:44.836Z,283.2629
2023-05-10T10:57:48.108Z,253.4754
2023-05-10T10:58:51.573Z,257.5895
2023-05-10T10:59:54.803Z,256.0117
2023-05-10T11:00:58.067Z,267.3794
2023-05-10T11:02:01.272Z,256.8781
2023-05-10T11:03:04.539Z,251.6997
2023-05-10T11:04:08.535Z,250.7512
2023-05-10T11:05:08.093Z,226.9405
2023-05-10T11:06:11.344Z,251.6000
2023-05-10T11:07:14.598Z,297.8827
2023-05-10T11:08:15.654Z,243.6936
2023-05-10T11:09:18.919Z,288.0002
2023-05-10T11:10:22.153Z,256.7037
2023-05-10T11:11:25.394Z,264.1022
2023-05-10T11:12:28.673Z,237.7693
2023-05-10T11:13:31.970Z,267.3901
2023-05-10T11:14:35.242Z,272.3159
2023-05-10T11:15:38.491Z,265.2711
2023-05-10T11:16:41.764Z,264.4697
2023-05-10T11:17:45.017Z,264.6826
2023-05-10T11:18:50.271Z,294.7450
2023-05-10T11:19:49.849Z,290.1734
2023-05-10T11:20:53.335Z,283.9413
2023-05-10T11:21:56.602Z,289.0009
2023-05-10T11:22:59.874Z,317.0984
2023-05-10T11:24:03.119Z,275.1960
2023-05-10T11:25:06.366Z,293.2948
2023-05-10T11:26:09.610Z,286.6658
2023-05-10T11:27:12.876Z,287.2922
2023-05-10T11:28:16.158Z,281.8356
2023-05-10T11:29:19.380Z,262.6440
2023-05-10T11:30:22.648Z,277.7988
2023-05-10T11:31:25.976Z,312.8305
2023-05-10T11:32:29.226Z,280.8910
2023-05-10T11:33:32.530Z,298.2615
2023-05-10T11:34:35.823Z,288.2678
2023-05-10T11:35:40.997Z,301.6315
2023-05-10T11:36:41.957Z,313.3759
2023-05-10T11:37:45.181Z,313.8244
2023-05-10T11:38:48.441Z,285.6024
2023-05-10T11:39:51.709Z,272.8884
2023-05-10T11:40:54.970Z,220.3398
2023-05-10T11:41:58.262Z,234.5779
2023-05-10T11:43:01.513Z,238.3405
2023-05-10T11:44:04.735Z,271.0997
2023-05-10T11:45:08.006Z,260.5352
2023-05-10T11:46:11.534Z,246.1772
2023-05-10T11:47:14.789Z,256.6864
2023-05-10T11:48:18.049Z,277.9763
2023-05-10T11:49:21.284Z,286.6469
2023-05-10T11:50:24.530Z,287.4138
2023-05-10T11:51:28.031Z,286.7172
2023-05-10T11:52:31.235Z,276.7197
2023-05-10T11:53:34.493Z,263.3631
2023-05-10T11:54:37.754Z,261.9565
2023-05-10T11:55:41.049Z,305.2509
2023-05-10T11:56:44.302Z,268.3760
2023-05-10T11:57:47.525Z,280.8036
2023-05-10T11:58:50.803Z,283.8004
2023-05-10T11:59:54.065Z,280.0222
2023-05-10T12:00:57.337Z,279.1479
2023-05-10T12:02:00.622Z,285.8495
2023-05-10T12:03:04.063Z,268.2069
2023-05-10T12:04:07.532Z,273.3799
2023-05-10T12:05:11.010Z,268.1512
2023-05-10T12:06:14.292Z,281.7565
2023-05-10T12:07:17.541Z,300.6077
2023-05-10T12:08:20.823Z,295.7128
2023-05-10T12:10:24.041Z,261.4037
2023-05-10T12:11:25.328Z,272.0429
2023-05-10T12:12:28.598Z,268.2838
2023-05-10T12:13:31.870Z,280.2648
2023-05-10T12:14:35.124Z,236.9385
2023-05-10T12:15:38.395Z,251.4337
2023-05-10T12:16:42.067Z,221.2509
2023-05-10T12:17:45.376Z,233.1511
2023-05-10T12:18:48.682Z,241.1297
2023-05-10T12:19:51.918Z,229.9047
2023-05-10T12:20:55.160Z,249.1120
2023-05-10T12:21:58.403Z,231.7790
2023-05-10T12:23:01.640Z,207.3915
2023-05-10T12:24:05.127Z,184.9129